createdAt,value
2022-08-08T00:00:50.101Z,15.65
2022-08-08T00:02:31.047Z,15.61
2022-08-08T00:04:53.168Z,15.57
2022-08-08T00:07:21.974Z,15.52
2022-08-08T00:09:48.204Z,15.47
2022-08-08T00:12:23.838Z,15.44
2022-08-08T00:15:00.687Z,15.37
2022-08-08T00:17:27.405Z,15.32
2022-08-08T00:20:14.663Z,15.27
2022-08-08T00:22:41.229Z,15.24
2022-08-08T00:25:08.413Z,15.20
2022-08-08T00:27:35.817Z,15.15
2022-08-08T00:30:03.188Z,15.11
2022-08-08T00:32:36.122Z,15.09
2022-08-08T00:35:03.970Z,15.03
2022-08-08T00:37:47.918Z,15.00
2022-08-08T00:41:06.805Z,14.97
2022-08-08T00:43:05.998Z,14.94
2022-08-08T00:45:44.789Z,14.90
2022-08-08T00:48:30.092Z,14.90
2022-08-08T00:50:56.970Z,14.90
2022-08-08T00:53:24.918Z,14.88
2022-08-08T00:55:55.715Z,14.87
2022-08-08T00:58:31.913Z,14.85
2022-08-08T01:00:58.883Z,14.79
2022-08-08T01:04:02.512Z,14.76
2022-08-08T01:06:11.881Z,14.72
2022-08-08T01:08:38.175Z,14.70
2022-08-08T01:11:13.132Z,14.70
2022-08-08T01:13:43.661Z,14.70
2022-08-08T01:16:10.779Z,14.68
2022-08-08T01:18:52.722Z,14.67
2022-08-08T01:21:35.073Z,14.65
2022-08-08T01:24:13.509Z,14.58
2022-08-08T01:26:48.116Z,14.56
2022-08-08T01:29:15.687Z,14.53
2022-08-08T01:32:13.053Z,14.50
2022-08-08T01:34:28.891Z,14.47
2022-08-08T01:36:55.379Z,14.44
2022-08-08T01:39:23.942Z,14.40
2022-08-08T01:41:54.058Z,14.36
2022-08-08T01:44:26.488Z,14.32
2022-08-08T01:46:52.953Z,14.27
2022-08-08T01:49:22.926Z,14.23
2022-08-08T01:52:29.272Z,14.20
2022-08-08T01:55:26.167Z,14.17
2022-08-08T01:57:22.323Z,14.14
2022-08-08T02:00:02.757Z,14.12
2022-08-08T02:02:34.906Z,14.09
2022-08-08T02:05:07.971Z,14.06
2022-08-08T02:07:37.011Z,14.02
2022-08-08T02:10:12.096Z,14.01
2022-08-08T02:12:38.603Z,13.99
2022-08-08T02:15:05.217Z,13.98
2022-08-08T02:17:43.065Z,13.97
2022-08-08T02:20:16.158Z,13.97
2022-08-08T02:22:55.998Z,13.94
2022-08-08T02:25:22.818Z,13.93
2022-08-08T02:28:00.980Z,13.91
2022-08-08T02:30:27.452Z,13.89
2022-08-08T02:32:53.732Z,13.88
2022-08-08T02:35:19.971Z,13.87
2022-08-08T02:37:53.443Z,13.85
2022-08-08T02:40:23.234Z,13.82
2022-08-08T02:44:35.201Z,13.80
2022-08-08T02:45:51.365Z,13.80
2022-08-08T02:48:26.268Z,13.79
2022-08-08T02:50:56.048Z,13.79
2022-08-08T02:53:24.095Z,13.79
2022-08-08T02:55:59.973Z,13.76
2022-08-08T02:58:26.429Z,13.73
2022-08-08T03:00:53.145Z,13.69
2022-08-08T03:05:00.611Z,13.67
2022-08-08T03:06:07.227Z,13.64
2022-08-08T03:08:33.675Z,13.62
2022-08-08T03:10:59.903Z,13.62
2022-08-08T03:15:53.712Z,13.59
2022-08-08T03:16:12.413Z,13.57
2022-08-08T03:18:46.027Z,13.54
2022-08-08T03:21:14.812Z,13.53
2022-08-08T03:23:59.120Z,13.50
2022-08-08T03:26:26.532Z,13.49
2022-08-08T03:28:53.451Z,13.48
2022-08-08T03:31:25.215Z,13.46
2022-08-08T03:34:00.566Z,13.46
2022-08-08T03:36:28.113Z,13.45
2022-08-08T03:39:14.557Z,13.43
2022-08-08T03:42:28.188Z,13.42
2022-08-08T03:44:28.324Z,13.41
2022-08-08T03:46:54.850Z,13.38
2022-08-08T03:49:58.606Z,13.36
2022-08-08T03:52:07.349Z,13.36
2022-08-08T03:54:51.768Z,13.36
2022-08-08T03:58:31.948Z,13.38
2022-08-08T04:00:12.209Z,13.39
2022-08-08T04:02:47.544Z,13.39
2022-08-08T04:05:19.549Z,13.43
2022-08-08T04:07:53.734Z,13.47
2022-08-08T04:10:19.989Z,13.49
2022-08-08T04:12:48.381Z,13.49
2022-08-08T04:15:16.158Z,13.49
2022-08-08T04:17:57.882Z,13.50
2022-08-08T04:20:28.165Z,13.51
2022-08-08T04:22:56.836Z,13.52
2022-08-08T04:25:23.446Z,13.52
2022-08-08T04:28:10.534Z,13.53
2022-08-08T04:30:44.694Z,13.51
2022-08-08T04:33:11.223Z,13.51
2022-08-08T04:35:39.612Z,13.51
2022-08-08T04:38:06.195Z,13.51
2022-08-08T04:40:35.885Z,13.53
2022-08-08T04:43:02.540Z,13.54
2022-08-08T04:45:31.718Z,13.55
2022-08-08T04:48:00.377Z,13.56
2022-08-08T04:50:34.337Z,13.57
2022-08-08T04:53:52.418Z,13.61
2022-08-08T04:55:55.406Z,13.65
2022-08-08T04:58:22.951Z,13.67
2022-08-08T05:00:49.952Z,13.72
2022-08-08T05:03:19.179Z,13.77
2022-08-08T05:06:13.032Z,13.83
2022-08-08T05:08:44.529Z,13.86
2022-08-08T05:11:10.779Z,13.91
2022-08-08T05:13:36.986Z,13.92
2022-08-08T05:16:55.154Z,13.96
2022-08-08T05:20:04.010Z,14.03
2022-08-08T05:21:58.254Z,14.09
2022-08-08T05:24:26.813Z,14.14
2022-08-08T05:26:53.061Z,14.19
2022-08-08T05:29:19.281Z,14.23
2022-08-08T05:32:03.506Z,14.28
2022-08-08T05:34:31.963Z,14.33
2022-08-08T05:36:58.204Z,14.38
2022-08-08T05:39:25.543Z,14.45
2022-08-08T05:41:55.901Z,14.49
2022-08-08T05:44:22.199Z,14.55
2022-08-08T05:47:02.951Z,14.64
2022-08-08T05:49:29.669Z,14.71
2022-08-08T05:51:57.421Z,14.78
2022-08-08T05:54:43.350Z,14.87
2022-08-08T05:57:11.020Z,14.96
2022-08-08T06:00:01.185Z,15.03
2022-08-08T06:02:24.548Z,15.13
2022-08-08T06:04:54.664Z,15.20
2022-08-08T06:07:21.244Z,15.31
2022-08-08T06:10:01.203Z,15.39
2022-08-08T06:12:30.017Z,15.48
2022-08-08T06:14:57.865Z,15.55
2022-08-08T06:17:50.314Z,15.64
2022-08-08T06:20:11.680Z,15.72
2022-08-08T06:22:38.578Z,15.79
2022-08-08T06:25:08.588Z,15.84
2022-08-08T06:27:36.502Z,15.91
2022-08-08T06:30:05.078Z,15.99
2022-08-08T06:32:33.621Z,16.06
2022-08-08T06:35:30.587Z,16.13
2022-08-08T06:37:46.082Z,16.20
2022-08-08T06:40:17.329Z,16.29
2022-08-08T06:42:43.576Z,16.34
2022-08-08T06:45:09.811Z,16.42
2022-08-08T06:47:51.824Z,16.52
2022-08-08T06:50:31.817Z,16.66
2022-08-08T06:52:58.893Z,16.73
2022-08-08T06:55:25.253Z,16.82
2022-08-08T06:57:57.449Z,16.89
2022-08-08T07:00:30.033Z,16.96
2022-08-08T07:02:56.947Z,17.09
2022-08-08T07:05:24.942Z,17.24
2022-08-08T07:07:55.994Z,17.39
2022-08-08T07:10:22.210Z,17.53
2022-08-08T07:12:49.679Z,17.66
2022-08-08T07:15:31.755Z,17.78
2022-08-08T07:18:01.640Z,17.89
2022-08-08T07:20:28.572Z,17.98
2022-08-08T07:22:54.814Z,18.09
2022-08-08T07:25:21.056Z,18.18
2022-08-08T07:28:02.492Z,18.28
2022-08-08T07:30:33.581Z,18.37
2022-08-08T07:33:01.289Z,18.46
2022-08-08T07:35:27.630Z,18.57
2022-08-08T07:38:04.664Z,18.64
2022-08-08T07:40:36.368Z,18.69
2022-08-08T07:43:04.076Z,18.75
2022-08-08T07:46:05.487Z,18.92
2022-08-08T07:48:21.458Z,19.07
2022-08-08T07:50:49.844Z,19.14
2022-08-08T07:53:51.957Z,19.22
2022-08-08T07:56:02.333Z,19.31
2022-08-08T07:58:28.587Z,19.38
2022-08-08T08:00:55.454Z,19.43
2022-08-08T08:03:28.436Z,19.49
2022-08-08T08:05:54.896Z,19.55
2022-08-08T08:08:22.754Z,19.64
2022-08-08T08:10:49.044Z,19.73
2022-08-08T08:13:17.827Z,19.81
2022-08-08T08:15:44.409Z,19.91
2022-08-08T08:18:14.539Z,19.99
2022-08-08T08:20:40.844Z,20.05
2022-08-08T08:23:08.353Z,20.10
2022-08-08T08:25:43.743Z,20.23
2022-08-08T08:28:23.577Z,20.36
2022-08-08T08:30:52.458Z,20.37
2022-08-08T08:33:20.067Z,20.50
2022-08-08T08:36:18.555Z,20.59
2022-08-08T08:38:32.811Z,20.68
2022-08-08T08:41:00.254Z,20.73
2022-08-08T08:43:28.998Z,20.78
2022-08-08T08:45:57.529Z,20.84
2022-08-08T08:48:23.912Z,20.87
2022-08-08T08:50:52.077Z,20.95
2022-08-08T08:53:54.482Z,21.08
2022-08-08T08:56:05.010Z,21.17
2022-08-08T08:58:31.248Z,21.19
2022-08-08T09:01:09.016Z,21.26
2022-08-08T09:03:46.492Z,21.32
2022-08-08T09:06:26.479Z,21.37
2022-08-08T09:08:53.595Z,21.42
2022-08-08T09:11:20.540Z,21.53
2022-08-08T09:13:47.730Z,21.61
2022-08-08T09:16:14.017Z,21.65
2022-08-08T09:18:41.323Z,21.73
2022-08-08T09:22:01.478Z,21.84
2022-08-08T09:23:54.362Z,21.92
2022-08-08T09:26:22.128Z,22.04
2022-08-08T09:28:48.407Z,22.08
2022-08-08T09:31:14.750Z,22.07
2022-08-08T09:34:15.989Z,22.10
2022-08-08T09:36:27.352Z,22.20
2022-08-08T09:38:54.510Z,22.30
2022-08-08T09:41:22.544Z,22.42
2022-08-08T09:44:06.550Z,22.51
2022-08-08T09:46:35.967Z,22.63
2022-08-08T09:49:41.295Z,22.74
2022-08-08T09:52:07.617Z,22.78
2022-08-08T09:54:36.872Z,22.82
2022-08-08T09:57:04.256Z,22.88
2022-08-08T10:00:02.412Z,22.94
2022-08-08T10:02:16.986Z,23.06
2022-08-08T10:04:47.323Z,23.18
2022-08-08T10:07:15.750Z,23.27
2022-08-08T10:10:00.631Z,23.35
2022-08-08T10:12:37.586Z,23.42
2022-08-08T10:15:17.862Z,23.45
2022-08-08T10:18:05.361Z,23.51
2022-08-08T10:20:40.296Z,23.58
2022-08-08T10:23:13.260Z,23.66
2022-08-08T10:25:57.329Z,23.70
2022-08-08T10:28:25.512Z,23.77
2022-08-08T10:31:01.294Z,23.90
2022-08-08T10:33:38.307Z,24.10
2022-08-08T10:36:22.078Z,24.04
2022-08-08T10:38:49.149Z,23.92
2022-08-08T10:41:15.502Z,23.89
2022-08-08T10:43:43.260Z,23.91
2022-08-08T10:46:29.409Z,23.98
2022-08-08T10:48:59.171Z,24.00
2022-08-08T10:51:26.284Z,23.99
2022-08-08T10:53:58.086Z,23.99
2022-08-08T10:56:27.156Z,24.05
2022-08-08T10:58:58.127Z,24.01
2022-08-08T11:01:24.451Z,23.98
2022-08-08T11:04:01.995Z,23.92
2022-08-08T11:06:29.057Z,23.80
2022-08-08T11:08:56.225Z,23.77
2022-08-08T11:11:31.958Z,23.93
2022-08-08T11:14:12.287Z,23.96
2022-08-08T11:16:42.404Z,23.90
2022-08-08T11:19:15.659Z,23.83
2022-08-08T11:21:43.547Z,23.72
2022-08-08T11:24:20.627Z,23.73
2022-08-08T11:26:56.703Z,23.78
2022-08-08T11:29:23.551Z,23.90
2022-08-08T11:32:07.901Z,24.05
2022-08-08T11:34:52.619Z,24.02
2022-08-08T11:38:34.509Z,24.07
2022-08-08T11:40:07.668Z,24.10
2022-08-08T11:42:35.505Z,24.09
2022-08-08T11:45:01.968Z,24.04
2022-08-08T11:47:39.569Z,24.04
2022-08-08T11:50:06.390Z,24.04
2022-08-08T11:52:39.171Z,24.01
2022-08-08T11:55:08.169Z,23.97
2022-08-08T11:57:35.133Z,23.98
2022-08-08T12:00:05.569Z,23.99
2022-08-08T12:02:34.002Z,23.99
2022-08-08T12:05:00.553Z,24.01
2022-08-08T12:07:26.846Z,24.01
2022-08-08T12:09:59.735Z,24.02
2022-08-08T12:12:28.988Z,24.08
2022-08-08T12:14:56.744Z,24.11
2022-08-08T12:17:23.005Z,24.16
2022-08-08T12:19:54.192Z,24.20
2022-08-08T12:22:21.358Z,24.16
2022-08-08T12:24:51.462Z,24.13
2022-08-08T12:27:22.423Z,24.23
2022-08-08T12:29:53.344Z,24.26
2022-08-08T12:32:22.361Z,24.28
2022-08-08T12:34:48.906Z,24.26
2022-08-08T12:37:15.178Z,24.30
2022-08-08T12:40:02.012Z,24.35
2022-08-08T12:42:33.890Z,24.39
2022-08-08T12:45:01.281Z,24.42
2022-08-08T12:47:57.903Z,24.51
2022-08-08T12:50:15.062Z,24.68
2022-08-08T12:52:41.520Z,24.98
2022-08-08T12:55:13.165Z,25.04
2022-08-08T12:57:56.208Z,24.92
2022-08-08T13:00:23.127Z,24.76
2022-08-08T13:03:01.040Z,24.68
2022-08-08T13:06:02.935Z,24.58
2022-08-08T13:08:15.813Z,24.52
2022-08-08T13:10:46.156Z,24.62
2022-08-08T13:13:23.590Z,24.94
2022-08-08T13:15:54.854Z,25.31
2022-08-08T13:18:27.383Z,25.74
2022-08-08T13:20:54.058Z,26.27
2022-08-08T13:23:30.477Z,26.70
2022-08-08T13:26:12.633Z,27.22
2022-08-08T13:28:42.057Z,27.54
2022-08-08T13:31:08.854Z,27.82
2022-08-08T13:33:42.119Z,27.80
2022-08-08T13:36:09.685Z,27.42
2022-08-08T13:38:35.927Z,27.13
2022-08-08T13:41:03.243Z,26.74
2022-08-08T13:43:29.462Z,26.54
2022-08-08T13:45:56.578Z,25.92
2022-08-08T13:48:25.272Z,25.72
2022-08-08T13:50:57.690Z,25.41
2022-08-08T13:53:38.621Z,25.24
2022-08-08T13:56:06.034Z,25.25
2022-08-08T13:58:33.103Z,25.19
2022-08-08T14:00:59.592Z,25.12
2022-08-08T14:03:53.473Z,25.33
2022-08-08T14:06:32.205Z,25.78
2022-08-08T14:08:58.316Z,26.19
2022-08-08T14:11:24.556Z,26.59
2022-08-08T14:13:59.642Z,27.07
2022-08-08T14:16:29.360Z,27.53
2022-08-08T14:18:55.625Z,27.82
2022-08-08T14:21:22.481Z,28.15
2022-08-08T14:24:04.164Z,28.46
2022-08-08T14:26:33.602Z,28.49
2022-08-08T14:28:59.888Z,28.67
2022-08-08T14:32:07.096Z,28.77
2022-08-08T14:34:22.987Z,28.72
2022-08-08T14:36:51.785Z,28.94
2022-08-08T14:39:20.957Z,28.42
2022-08-08T14:41:54.329Z,28.53
2022-08-08T14:44:24.895Z,28.81
2022-08-08T14:46:56.631Z,29.06
2022-08-08T14:49:32.120Z,29.23
2022-08-08T14:52:03.908Z,29.37
2022-08-08T14:54:31.385Z,29.41
2022-08-08T14:56:58.017Z,29.37
2022-08-08T14:59:50.068Z,29.10
2022-08-08T15:02:10.816Z,29.04
2022-08-08T15:04:41.801Z,29.15
2022-08-08T15:07:08.035Z,29.15
2022-08-08T15:09:49.467Z,29.16
2022-08-08T15:12:17.702Z,29.18
2022-08-08T15:14:53.749Z,29.16
2022-08-08T15:17:19.976Z,29.11
2022-08-08T15:19:46.263Z,29.02
2022-08-08T15:22:12.533Z,28.99
2022-08-08T15:24:44.298Z,28.82
2022-08-08T15:28:04.914Z,28.82
2022-08-08T15:30:02.556Z,28.75
2022-08-08T15:32:31.421Z,28.75
2022-08-08T15:34:57.959Z,28.71
2022-08-08T15:37:26.315Z,28.60
2022-08-08T15:39:52.609Z,28.43
2022-08-08T15:42:31.712Z,28.41
2022-08-08T15:44:59.259Z,28.30
2022-08-08T15:47:25.489Z,28.22
2022-08-08T15:49:51.735Z,28.27
2022-08-08T15:52:20.473Z,28.26
2022-08-08T15:54:48.011Z,28.37
2022-08-08T15:57:18.135Z,28.39
2022-08-08T16:00:05.469Z,28.38
2022-08-08T16:02:32.052Z,28.34
2022-08-08T16:04:59.281Z,28.35
2022-08-08T16:07:25.562Z,28.37
2022-08-08T16:13:04.686Z,28.16
2022-08-08T16:13:26.003Z,28.17
2022-08-08T16:15:59.150Z,28.02
2022-08-08T16:18:29.394Z,27.96
2022-08-08T16:20:59.931Z,27.89
2022-08-08T16:23:27.025Z,27.87
2022-08-08T16:25:54.663Z,27.91
2022-08-08T16:28:35.255Z,27.81
2022-08-08T16:31:03.195Z,27.55
2022-08-08T16:33:38.875Z,27.16
2022-08-08T16:36:08.978Z,26.80
2022-08-08T16:38:35.663Z,26.37
2022-08-08T16:41:06.900Z,26.15
2022-08-08T16:43:42.242Z,25.91
2022-08-08T16:46:43.066Z,25.85
2022-08-08T16:49:01.780Z,25.74
2022-08-08T16:55:02.071Z,25.68
2022-08-08T16:55:07.106Z,25.66
2022-08-08T16:57:22.826Z,25.84
2022-08-08T16:59:51.961Z,26.02
2022-08-08T17:02:38.551Z,26.19
2022-08-08T17:05:12.936Z,26.39
2022-08-08T17:07:40.391Z,26.46
2022-08-08T17:10:06.979Z,26.40
2022-08-08T17:12:33.701Z,26.40
2022-08-08T17:15:17.182Z,26.41
2022-08-08T17:18:02.268Z,26.37
2022-08-08T17:20:28.941Z,26.39
2022-08-08T17:23:16.596Z,26.48
2022-08-08T17:25:51.973Z,26.52
2022-08-08T17:28:18.937Z,26.55
2022-08-08T17:31:01.094Z,26.59
2022-08-08T17:34:36.933Z,26.60
2022-08-08T17:36:29.374Z,26.67
2022-08-08T17:38:57.763Z,26.68
2022-08-08T17:41:38.931Z,26.65
2022-08-08T17:44:09.458Z,26.59
2022-08-08T17:46:36.454Z,26.47
2022-08-08T17:49:02.711Z,26.25
2022-08-08T17:51:28.929Z,26.09
2022-08-08T17:53:57.704Z,25.93
2022-08-08T17:56:26.302Z,25.80
2022-08-08T17:58:53.183Z,25.65
2022-08-08T18:01:29.842Z,25.39
2022-08-08T18:04:06.581Z,25.23
2022-08-08T18:06:35.369Z,25.13
2022-08-08T18:09:09.451Z,24.99
2022-08-08T18:11:36.590Z,24.89
2022-08-08T18:14:02.907Z,24.84
2022-08-08T18:16:45.018Z,24.69
2022-08-08T18:19:20.627Z,24.58
2022-08-08T18:22:01.797Z,24.45
2022-08-08T18:24:28.543Z,24.35
2022-08-08T18:26:56.957Z,24.26
2022-08-08T18:29:26.123Z,24.13
2022-08-08T18:31:56.638Z,24.06
2022-08-08T18:34:26.993Z,24.00
2022-08-08T18:36:53.506Z,23.93
2022-08-08T18:39:27.566Z,23.86
2022-08-08T18:41:58.127Z,23.74
2022-08-08T18:44:29.178Z,23.60
2022-08-08T18:46:59.421Z,23.44
2022-08-08T18:49:25.637Z,23.35
2022-08-08T18:51:59.019Z,23.25
2022-08-08T18:54:30.861Z,23.17
2022-08-08T18:56:57.276Z,23.15
2022-08-08T18:59:23.575Z,23.08
2022-08-08T19:02:14.195Z,23.05
2022-08-08T19:04:36.031Z,22.92
2022-08-08T19:07:02.931Z,22.83
2022-08-08T19:09:49.503Z,22.76
2022-08-08T19:12:15.478Z,22.70
2022-08-08T19:14:42.851Z,22.63
2022-08-08T19:17:10.541Z,22.57
2022-08-08T19:19:36.841Z,22.45
2022-08-08T19:22:10.280Z,22.35
2022-08-08T19:24:50.646Z,22.20
2022-08-08T19:27:57.071Z,22.06
2022-08-08T19:30:18.001Z,21.91
2022-08-08T19:32:50.921Z,21.79
2022-08-08T19:35:17.160Z,21.74
2022-08-08T19:37:52.973Z,21.67
2022-08-08T19:40:30.674Z,21.61
2022-08-08T19:42:57.509Z,21.52
2022-08-08T19:45:58.566Z,21.45
2022-08-08T19:48:28.764Z,21.37
2022-08-08T19:50:57.607Z,21.29
2022-08-08T19:53:51.643Z,21.23
2022-08-08T19:56:12.866Z,21.18
2022-08-08T19:58:39.512Z,21.11
2022-08-08T20:01:08.508Z,21.06
2022-08-08T20:04:00.879Z,21.02
2022-08-08T20:06:29.389Z,20.96
2022-08-08T20:08:55.694Z,20.91
2022-08-08T20:11:22.287Z,20.85
2022-08-08T20:14:31.616Z,20.79
2022-08-08T20:16:39.302Z,20.71
2022-08-08T20:19:07.388Z,20.65
2022-08-08T20:21:37.334Z,20.59
2022-08-08T20:24:04.530Z,20.54
2022-08-08T20:26:33.369Z,20.49
2022-08-08T20:29:00.071Z,20.44
2022-08-08T20:31:28.157Z,20.39
2022-08-08T20:34:29.074Z,20.35
2022-08-08T20:36:57.984Z,20.30
2022-08-08T20:39:24.352Z,20.24
2022-08-08T20:41:59.885Z,20.19
2022-08-08T20:44:26.229Z,20.14
2022-08-08T20:46:52.559Z,20.08
2022-08-08T20:49:19.627Z,20.03
2022-08-08T20:51:48.406Z,20.00
2022-08-08T20:54:27.357Z,19.95
2022-08-08T20:57:04.783Z,19.93
2022-08-08T20:59:41.003Z,19.88
2022-08-08T21:02:09.065Z,19.84
2022-08-08T21:04:39.184Z,19.80
2022-08-08T21:07:13.269Z,19.77
2022-08-08T21:10:02.196Z,19.72
2022-08-08T21:12:32.387Z,19.68
2022-08-08T21:14:59.922Z,19.64
2022-08-08T21:17:33.335Z,19.60
2022-08-08T21:19:59.860Z,19.57
2022-08-08T21:22:29.044Z,19.53
2022-08-08T21:24:55.283Z,19.51
2022-08-08T21:28:05.858Z,19.46
2022-08-08T21:30:16.283Z,19.42
2022-08-08T21:32:45.813Z,19.38
2022-08-08T21:36:15.086Z,19.34
2022-08-08T21:38:05.698Z,19.29
2022-08-08T21:40:34.901Z,19.25
2022-08-08T21:43:01.943Z,19.20
2022-08-08T21:47:59.398Z,19.16
2022-08-08T21:48:19.954Z,19.12
2022-08-08T21:50:50.488Z,19.08
2022-08-08T21:54:35.368Z,19.06
2022-08-08T21:56:19.112Z,19.02
2022-08-08T21:58:54.848Z,18.97
2022-08-08T22:01:38.795Z,18.93
2022-08-08T22:04:07.014Z,18.91
2022-08-08T22:06:37.870Z,18.87
2022-08-08T22:09:08.326Z,18.83
2022-08-08T22:11:59.249Z,18.81
2022-08-08T22:14:21.368Z,18.77
2022-08-08T22:16:47.667Z,18.74
2022-08-08T22:19:17.387Z,18.69
2022-08-08T22:21:43.671Z,18.65
2022-08-08T22:24:13.333Z,18.61
2022-08-08T22:27:01.722Z,18.57
2022-08-08T22:30:01.920Z,18.54
2022-08-08T22:32:11.984Z,18.50
2022-08-08T22:34:39.235Z,18.49
2022-08-08T22:37:06.370Z,18.48
2022-08-08T22:39:51.537Z,18.46
2022-08-08T22:42:31.336Z,18.46
2022-08-08T22:44:58.531Z,18.46
2022-08-08T22:47:34.362Z,18.47
2022-08-08T22:50:04.708Z,18.47
2022-08-08T22:52:33.520Z,18.47
2022-08-08T22:55:04.638Z,18.49
2022-08-08T22:57:44.240Z,18.50
2022-08-08T23:00:16.436Z,18.50
2022-08-08T23:02:44.728Z,18.49
2022-08-08T23:05:16.692Z,18.49
2022-08-08T23:07:56.928Z,18.49
2022-08-08T23:10:25.560Z,18.47
2022-08-08T23:12:53.220Z,18.47
2022-08-08T23:16:38.675Z,18.47
2022-08-08T23:18:06.012Z,18.47
2022-08-08T23:20:32.270Z,18.48
2022-08-08T23:22:58.758Z,18.46
2022-08-08T23:25:25.935Z,18.46
2022-08-08T23:27:54.390Z,18.46
2022-08-08T23:30:21.025Z,18.44
2022-08-08T23:32:48.002Z,18.44
2022-08-08T23:35:17.301Z,18.41
2022-08-08T23:38:00.766Z,18.40
2022-08-08T23:40:28.696Z,18.37
2022-08-08T23:42:56.430Z,18.36
2022-08-08T23:49:02.101Z,18.33
2022-08-08T23:49:04.025Z,18.29
2022-08-08T23:50:57.407Z,18.26
2022-08-08T23:53:55.900Z,18.23
2022-08-08T23:56:10.062Z,18.21
2022-08-08T23:58:38.452Z,18.17
